Time,TemperatureF,DewpointF,PressureIn,WindDirection,WindDirectionDegrees,WindSpeedMPH,WindSpeedGustMPH,Humidity,HourlyPrecipIn,Conditions,Clouds,dailyrainin,SoftwareType,DateUTC
2013-07-02 00:01:00,70.0,49.0,30.07,NNW,333,0.0,-999.0,48,-99.99,,,-99.99,,2013-07-02 05:01:00,
2013-07-02 00:11:00,69.0,49.0,30.07,NNW,333,0.0,-999.0,49,-99.99,,,-99.99,,2013-07-02 05:11:00,
2013-07-02 00:22:00,69.0,50.0,30.07,NNW,333,0.0,-999.0,50,-99.99,,,-99.99,,2013-07-02 05:22:00,
2013-07-02 00:32:00,69.0,51.0,30.07,NNW,333,0.0,-999.0,53,-99.99,,,-99.99,,2013-07-02 05:32:00,
2013-07-02 00:43:00,68.0,51.0,30.07,NNW,333,0.0,-999.0,54,-99.99,,,-99.99,,2013-07-02 05:43:00,
2013-07-02 00:53:00,68.0,52.0,30.07,NNW,333,0.0,-999.0,57,-99.99,,,-99.99,,2013-07-02 05:53:00,
2013-07-02 01:01:00,67.0,51.0,30.07,NNW,333,0.0,-999.0,56,-99.99,,,-99.99,,2013-07-02 06:01:00,
2013-07-02 01:11:00,67.0,51.0,30.06,NNW,333,0.0,-999.0,56,-99.99,,,-99.99,,2013-07-02 06:11:00,
2013-07-02 01:23:00,67.0,52.0,30.06,NNW,333,0.0,-999.0,59,-99.99,,,-99.99,,2013-07-02 06:23:00,
2013-07-02 01:33:00,66.0,51.0,30.06,NNW,333,0.0,-999.0,58,-99.99,,,-99.99,,2013-07-02 06:33:00,
2013-07-02 01:43:00,67.0,51.0,30.06,NNW,332,0.0,-999.0,57,-99.99,,,-99.99,,2013-07-02 06:43:00,
2013-07-02 01:53:00,67.0,52.0,30.06,NNW,332,0.0,-999.0,58,-99.99,,,-99.99,,2013-07-02 06:53:00,
2013-07-02 02:01:00,67.0,52.0,30.06,NNW,332,0.0,-999.0,59,-99.99,,,-99.99,,2013-07-02 07:01:00,
2013-07-02 02:11:00,66.0,52.0,30.06,NNW,332,0.0,-999.0,61,-99.99,,,-99.99,,2013-07-02 07:11:00,
2013-07-02 02:22:00,65.0,53.0,30.06,NW,318,0.0,-999.0,65,-99.99,,,-99.99,,2013-07-02 07:22:00,
2013-07-02 02:33:00,64.0,53.0,30.06,NW,318,0.0,-999.0,67,-99.99,,,-99.99,,2013-07-02 07:33:00,
2013-07-02 02:44:00,64.0,53.0,30.06,NW,318,0.0,-999.0,68,-99.99,,,-99.99,,2013-07-02 07:44:00,
2013-07-02 02:52:00,64.0,53.0,30.06,NW,318,0.0,-999.0,68,-99.99,,,-99.99,,2013-07-02 07:52:00,
2013-07-02 03:02:00,64.0,54.0,30.06,NW,318,0.0,-999.0,69,-99.99,,,-99.99,,2013-07-02 08:02:00,
2013-07-02 03:12:00,63.0,53.0,30.06,NW,318,0.0,-999.0,69,-99.99,,,-99.99,,2013-07-02 08:12:00,
2013-07-02 03:22:00,63.0,53.0,30.06,NW,318,0.0,-999.0,69,-99.99,,,-99.99,,2013-07-02 08:22:00,
2013-07-02 03:33:00,63.0,53.0,30.06,NW,318,0.0,-999.0,70,-99.99,,,-99.99,,2013-07-02 08:33:00,
2013-07-02 03:44:00,63.0,53.0,30.05,NW,318,0.0,-999.0,70,-99.99,,,-99.99,,2013-07-02 08:44:00,
2013-07-02 03:53:00,63.0,53.0,30.05,NW,318,0.0,-999.0,71,-99.99,,,-99.99,,2013-07-02 08:53:00,
2013-07-02 04:01:00,62.0,53.0,30.05,NW,318,0.0,-999.0,72,-99.99,,,-99.99,,2013-07-02 09:01:00,
2013-07-02 04:11:00,62.0,53.0,30.05,NW,318,0.0,-999.0,73,-99.99,,,-99.99,,2013-07-02 09:11:00,
2013-07-02 04:22:00,63.0,53.0,30.05,NW,318,0.0,-999.0,71,-99.99,,,-99.99,,2013-07-02 09:22:00,
2013-07-02 04:33:00,63.0,53.0,30.05,NW,318,0.0,-999.0,69,-99.99,,,-99.99,,2013-07-02 09:33:00,
2013-07-02 04:43:00,63.0,52.0,30.06,NW,318,0.0,-999.0,67,-99.99,,,-99.99,,2013-07-02 09:43:00,
2013-07-02 04:52:00,63.0,52.0,30.06,NW,318,0.0,-999.0,68,-99.99,,,-99.99,,2013-07-02 09:52:00,
2013-07-02 05:01:00,63.0,53.0,30.06,NW,318,0.0,-999.0,69,-99.99,,,-99.99,,2013-07-02 10:01:00,
2013-07-02 05:11:00,63.0,53.0,30.06,NW,318,0.0,-999.0,69,-99.99,,,-99.99,,2013-07-02 10:11:00,
2013-07-02 05:22:00,63.0,53.0,30.06,NW,318,0.0,-999.0,70,-99.99,,,-99.99,,2013-07-02 10:22:00,
2013-07-02 05:33:00,63.0,53.0,30.06,NW,318,0.0,-999.0,71,-99.99,,,-99.99,,2013-07-02 10:33:00,
2013-07-02 05:43:00,63.0,53.0,30.06,NW,316,0.0,-999.0,71,-99.99,,,-99.99,,2013-07-02 10:43:00,
2013-07-02 05:52:00,63.0,53.0,30.07,NW,312,0.0,-999.0,71,-99.99,,,-99.99,,2013-07-02 10:52:00,
2013-07-02 06:01:00,63.0,53.0,30.07,NW,320,0.0,-999.0,71,-99.99,,,-99.99,,2013-07-02 11:01:00,
2013-07-02 06:11:00,63.0,54.0,30.07,NW,320,0.0,-999.0,72,-99.99,,,-99.99,,2013-07-02 11:11:00,
2013-07-02 06:22:00,63.0,54.0,30.08,NW,320,0.0,-999.0,72,-99.99,,,-99.99,,2013-07-02 11:22:00,
2013-07-02 06:33:00,63.0,54.0,30.08,NW,320,0.0,-999.0,73,-99.99,,,-99.99,,2013-07-02 11:33:00,
2013-07-02 06:42:00,63.0,54.0,30.09,NW,320,0.0,-999.0,73,-99.99,,,-99.99,,2013-07-02 11:42:00,
2013-07-02 06:52:00,63.0,54.0,30.09,NW,319,0.0,-999.0,73,-99.99,,,-99.99,,2013-07-02 11:52:00,
2013-07-02 07:01:00,63.0,55.0,30.09,NW,308,0.0,-999.0,74,-99.99,,,-99.99,,2013-07-02 12:01:00,
2013-07-02 07:11:00,63.0,54.0,30.09,NW,308,0.0,-999.0,73,-99.99,,,-99.99,,2013-07-02 12:11:00,
2013-07-02 07:23:00,63.0,54.0,30.09,NW,308,0.0,-999.0,73,-99.99,,,-99.99,,2013-07-02 12:23:00,
2013-07-02 07:33:00,64.0,54.0,30.09,NW,305,0.0,-999.0,69,-99.99,,,-99.99,,2013-07-02 12:33:00,
2013-07-02 07:43:00,65.0,55.0,30.09,NW,306,0.0,-999.0,69,-99.99,,,-99.99,,2013-07-02 12:43:00,
2013-07-02 07:52:00,65.0,53.0,30.10,NW,309,0.0,-999.0,65,-99.99,,,-99.99,,2013-07-02 12:52:00,
2013-07-02 08:01:00,67.0,54.0,30.10,NW,309,0.0,-999.0,62,-99.99,,,-99.99,,2013-07-02 13:01:00,
2013-07-02 08:11:00,68.0,54.0,30.10,WNW,292,0.0,-999.0,60,-99.99,,,-99.99,,2013-07-02 13:11:00,
2013-07-02 08:22:00,69.0,54.0,30.10,WNW,294,0.0,-999.0,58,-99.99,,,-99.99,,2013-07-02 13:22:00,
2013-07-02 08:34:00,70.0,55.0,30.10,WNW,292,0.0,-999.0,58,-99.99,,,-99.99,,2013-07-02 13:34:00,
2013-07-02 08:43:00,71.0,55.0,30.10,WNW,292,0.0,-999.0,57,-99.99,,,-99.99,,2013-07-02 13:43:00,
2013-07-02 08:52:00,71.0,54.0,30.11,WNW,294,0.0,-999.0,56,-99.99,,,-99.99,,2013-07-02 13:52:00,
2013-07-02 09:01:00,72.0,54.0,30.11,NNW,332,0.0,-999.0,54,-99.99,,,-99.99,,2013-07-02 14:01:00,
2013-07-02 09:11:00,72.0,54.0,30.11,NW,308,0.0,-999.0,53,-99.99,,,-99.99,,2013-07-02 14:11:00,
2013-07-02 09:22:00,73.0,54.0,30.11,NW,308,0.0,-999.0,51,-99.99,,,-99.99,,2013-07-02 14:22:00,
2013-07-02 09:33:00,72.0,53.0,30.11,NW,320,1.0,-999.0,52,-99.99,,,-99.99,,2013-07-02 14:33:00,
2013-07-02 09:43:00,73.0,54.0,30.11,NW,320,0.0,-999.0,51,-99.99,,,-99.99,,2013-07-02 14:43:00,
2013-07-02 09:53:00,74.0,54.0,30.11,NNW,329,0.0,-999.0,49,-99.99,,,-99.99,,2013-07-02 14:53:00,
2013-07-02 10:02:00,75.0,55.0,30.11,NNW,329,0.0,-999.0,49,-99.99,,,-99.99,,2013-07-02 15:02:00,
2013-07-02 10:11:00,75.0,53.0,30.11,WNW,284,0.0,-999.0,47,-99.99,,,-99.99,,2013-07-02 15:11:00,
2013-07-02 10:22:00,76.0,52.0,30.11,WNW,284,0.0,-999.0,44,-99.99,,,-99.99,,2013-07-02 15:22:00,
2013-07-02 10:33:00,78.0,53.0,30.11,WNW,284,0.0,-999.0,42,-99.99,,,-99.99,,2013-07-02 15:33:00,
2013-07-02 10:44:00,78.0,53.0,30.11,WNW,284,0.0,-999.0,42,-99.99,,,-99.99,,2013-07-02 15:44:00,
2013-07-02 10:53:00,78.0,53.0,30.11,WNW,291,1.0,-999.0,42,-99.99,,,-99.99,,2013-07-02 15:53:00,
2013-07-02 11:01:00,78.0,50.0,30.11,WNW,285,0.0,-999.0,38,-99.99,,,-99.99,,2013-07-02 16:01:00,
2013-07-02 11:12:00,79.0,52.0,30.11,WNW,282,0.0,-999.0,39,-99.99,,,-99.99,,2013-07-02 16:12:00,
2013-07-02 11:22:00,79.0,52.0,30.10,WSW,247,1.0,-999.0,39,-99.99,,,-99.99,,2013-07-02 16:22:00,
2013-07-02 11:33:00,78.0,51.0,30.10,West,277,1.0,-999.0,39,-99.99,,,-99.99,,2013-07-02 16:33:00,
2013-07-02 11:43:00,79.0,52.0,30.11,West,275,0.0,-999.0,39,-99.99,,,-99.99,,2013-07-02 16:43:00,
2013-07-02 11:52:00,79.0,50.0,30.10,West,280,1.0,-999.0,37,-99.99,,,-99.99,,2013-07-02 16:52:00,
2013-07-02 12:02:00,80.0,51.0,30.10,WNW,285,1.0,-999.0,37,-99.99,,,-99.99,,2013-07-02 17:02:00,
2013-07-02 12:11:00,80.0,51.0,30.10,WNW,295,2.0,-999.0,37,-99.99,,,-99.99,,2013-07-02 17:11:00,
2013-07-02 12:33:00,81.0,51.0,30.10,West,270,1.0,-999.0,35,-99.99,,,-99.99,,2013-07-02 17:33:00,
2013-07-02 12:43:00,81.0,50.0,30.10,WNW,287,0.0,-999.0,34,-99.99,,,-99.99,,2013-07-02 17:43:00,
2013-07-02 12:53:00,82.0,52.0,30.10,NW,313,0.0,-999.0,35,-99.99,,,-99.99,,2013-07-02 17:53:00,
2013-07-02 13:02:00,81.0,50.0,30.10,West,267,2.0,-999.0,34,-99.99,,,-99.99,,2013-07-02 18:02:00,
2013-07-02 13:12:00,81.0,47.0,30.09,WNW,285,2.0,-999.0,31,-99.99,,,-99.99,,2013-07-02 18:12:00,
2013-07-02 13:23:00,81.0,52.0,30.09,ENE,64,2.0,-999.0,36,-99.99,,,-99.99,,2013-07-02 18:23:00,
2013-07-02 13:34:00,83.0,49.0,30.09,NW,320,0.0,-999.0,31,-99.99,,,-99.99,,2013-07-02 18:34:00,
2013-07-02 13:43:00,82.0,47.0,30.09,West,271,1.0,-999.0,30,-99.99,,,-99.99,,2013-07-02 18:43:00,
2013-07-02 13:53:00,83.0,52.0,30.08,ENE,76,1.0,-999.0,34,-99.99,,,-99.99,,2013-07-02 18:53:00,
2013-07-02 14:01:00,82.0,52.0,30.08,NW,326,1.0,-999.0,35,-99.99,,,-99.99,,2013-07-02 19:01:00,
2013-07-02 14:12:00,82.0,51.0,30.08,NNW,335,0.0,-999.0,34,-99.99,,,-99.99,,2013-07-02 19:12:00,
2013-07-02 14:22:00,82.0,50.0,30.07,West,277,2.0,-999.0,33,-99.99,,,-99.99,,2013-07-02 19:22:00,
2013-07-02 14:34:00,82.0,49.0,30.07,WNW,292,2.0,-999.0,32,-99.99,,,-99.99,,2013-07-02 19:34:00,
2013-07-02 14:43:00,83.0,50.0,30.07,North,349,1.0,-999.0,32,-99.99,,,-99.99,,2013-07-02 19:43:00,
2013-07-02 14:53:00,84.0,50.0,30.07,WNW,291,1.0,-999.0,31,-99.99,,,-99.99,,2013-07-02 19:53:00,
2013-07-02 15:02:00,83.0,51.0,30.07,NE,51,1.0,-999.0,33,-99.99,,,-99.99,,2013-07-02 20:02:00,
2013-07-02 15:11:00,83.0,51.0,30.07,WNW,288,0.0,-999.0,33,-99.99,,,-99.99,,2013-07-02 20:11:00,
2013-07-02 15:22:00,84.0,49.0,30.06,ESE,110,1.0,-999.0,30,-99.99,,,-99.99,,2013-07-02 20:22:00,
2013-07-02 15:33:00,84.0,50.0,30.06,North,1,1.0,-999.0,31,-99.99,,,-99.99,,2013-07-02 20:33:00,
2013-07-02 15:43:00,84.0,50.0,30.06,West,270,1.0,-999.0,31,-99.99,,,-99.99,,2013-07-02 20:43:00,
2013-07-02 15:52:00,83.0,50.0,30.06,ENE,75,0.0,-999.0,32,-99.99,,,-99.99,,2013-07-02 20:52:00,
2013-07-02 16:02:00,83.0,50.0,30.06,NE,55,1.0,-999.0,32,-99.99,,,-99.99,,2013-07-02 21:02:00,
2013-07-02 16:11:00,83.0,52.0,30.06,North,360,0.0,-999.0,34,-99.99,,,-99.99,,2013-07-02 21:11:00,
2013-07-02 16:22:00,83.0,48.0,30.06,NE,54,1.0,-999.0,30,-99.99,,,-99.99,,2013-07-02 21:22:00,
2013-07-02 16:33:00,83.0,47.0,30.06,NNW,339,0.0,-999.0,29,-99.99,,,-99.99,,2013-07-02 21:33:00,
2013-07-02 16:43:00,84.0,49.0,30.05,NNW,337,0.0,-999.0,30,-99.99,,,-99.99,,2013-07-02 21:43:00,
2013-07-02 16:52:00,84.0,46.0,30.05,NNW,333,0.0,-999.0,27,-99.99,,,-99.99,,2013-07-02 21:52:00,
2013-07-02 17:01:00,85.0,48.0,30.05,West,280,1.0,-999.0,28,-99.99,,,-99.99,,2013-07-02 22:01:00,
2013-07-02 17:11:00,85.0,48.0,30.05,NW,319,1.0,-999.0,28,-99.99,,,-99.99,,2013-07-02 22:11:00,
2013-07-02 17:22:00,85.0,48.0,30.04,NE,47,0.0,-999.0,28,-99.99,,,-99.99,,2013-07-02 22:22:00,
2013-07-02 17:34:00,84.0,48.0,30.04,NW,319,0.0,-999.0,29,-99.99,,,-99.99,,2013-07-02 22:34:00,
2013-07-02 17:43:00,85.0,48.0,30.04,West,281,1.0,-999.0,28,-99.99,,,-99.99,,2013-07-02 22:43:00,
2013-07-02 17:53:00,85.0,47.0,30.04,West,277,0.0,-999.0,27,-99.99,,,-99.99,,2013-07-02 22:53:00,
2013-07-02 18:01:00,85.0,47.0,30.04,NNW,339,0.0,-999.0,27,-99.99,,,-99.99,,2013-07-02 23:01:00,
2013-07-02 18:11:00,84.0,48.0,30.04,ENE,65,1.0,-999.0,29,-99.99,,,-99.99,,2013-07-02 23:11:00,
2013-07-02 18:22:00,83.0,47.0,30.03,ENE,64,0.0,-999.0,29,-99.99,,,-99.99,,2013-07-02 23:22:00,
2013-07-02 18:33:00,84.0,48.0,30.03,NNW,339,0.0,-999.0,29,-99.99,,,-99.99,,2013-07-02 23:33:00,
2013-07-02 18:44:00,83.0,48.0,30.03,North,4,1.0,-999.0,30,-99.99,,,-99.99,,2013-07-02 23:44:00,
2013-07-02 18:52:00,83.0,48.0,30.03,NNE,20,0.0,-999.0,30,-99.99,,,-99.99,,2013-07-02 23:52:00,
2013-07-02 19:01:00,83.0,48.0,30.03,NW,311,1.0,-999.0,30,-99.99,,,-99.99,,2013-07-03 00:01:00,
2013-07-02 19:11:00,82.0,46.0,30.03,East,89,1.0,-999.0,28,-99.99,,,-99.99,,2013-07-03 00:11:00,
2013-07-02 19:22:00,82.0,47.0,30.03,ENE,78,1.0,-999.0,30,-99.99,,,-99.99,,2013-07-03 00:22:00,
2013-07-02 19:33:00,82.0,45.0,30.03,ENE,68,0.0,-999.0,27,-99.99,,,-99.99,,2013-07-03 00:33:00,
2013-07-02 19:44:00,82.0,46.0,30.03,NNE,32,0.0,-999.0,28,-99.99,,,-99.99,,2013-07-03 00:44:00,
2013-07-02 19:52:00,81.0,44.0,30.03,ENE,69,0.0,-999.0,27,-99.99,,,-99.99,,2013-07-03 00:52:00,
2013-07-02 20:01:00,81.0,44.0,30.03,ENE,69,0.0,-999.0,27,-99.99,,,-99.99,,2013-07-03 01:01:00,
2013-07-02 20:11:00,81.0,47.0,30.04,ENE,64,0.0,-999.0,31,-99.99,,,-99.99,,2013-07-03 01:11:00,
2013-07-02 20:22:00,81.0,47.0,30.04,ENE,64,0.0,-999.0,31,-99.99,,,-99.99,,2013-07-03 01:22:00,
2013-07-02 20:33:00,81.0,47.0,30.04,ENE,64,0.0,-999.0,31,-99.99,,,-99.99,,2013-07-03 01:33:00,
2013-07-02 20:42:00,81.0,47.0,30.04,ENE,64,0.0,-999.0,31,-99.99,,,-99.99,,2013-07-03 01:42:00,
2013-07-02 20:54:00,81.0,47.0,30.04,ENE,62,0.0,-999.0,31,-99.99,,,-99.99,,2013-07-03 01:54:00,
2013-07-02 21:02:00,80.0,48.0,30.04,ENE,62,0.0,-999.0,33,-99.99,,,-99.99,,2013-07-03 02:02:00,
2013-07-02 21:25:00,77.0,49.0,30.05,ENE,62,0.0,-999.0,37,-99.99,,,-99.99,,2013-07-03 02:25:00,
2013-07-02 21:54:00,75.0,50.0,30.06,ENE,62,0.0,-999.0,41,-99.99,,,-99.99,,2013-07-03 02:54:00,
2013-07-02 22:02:00,74.0,50.0,30.05,ENE,62,0.0,-999.0,43,-99.99,,,-99.99,,2013-07-03 03:02:00,
2013-07-02 22:12:00,74.0,50.0,30.06,ENE,62,0.0,-999.0,43,-99.99,,,-99.99,,2013-07-03 03:12:00,
2013-07-02 22:25:00,73.0,50.0,30.07,ENE,62,0.0,-999.0,44,-99.99,,,-99.99,,2013-07-03 03:25:00,
2013-07-02 22:35:00,73.0,50.0,30.07,ENE,62,0.0,-999.0,45,-99.99,,,-99.99,,2013-07-03 03:35:00,
2013-07-02 22:45:00,73.0,50.0,30.07,ENE,62,0.0,-999.0,45,-99.99,,,-99.99,,2013-07-03 03:45:00,
2013-07-02 22:54:00,73.0,50.0,30.07,ENE,62,0.0,-999.0,45,-99.99,,,-99.99,,2013-07-03 03:54:00,
2013-07-02 23:01:00,72.0,50.0,30.07,ENE,62,0.0,-999.0,46,-99.99,,,-99.99,,2013-07-03 04:01:00,
2013-07-02 23:11:00,72.0,51.0,30.07,ENE,62,0.0,-999.0,48,-99.99,,,-99.99,,2013-07-03 04:11:00,
2013-07-02 23:22:00,71.0,51.0,30.07,ENE,62,0.0,-999.0,49,-99.99,,,-99.99,,2013-07-03 04:22:00,
2013-07-02 23:33:00,71.0,52.0,30.07,ENE,62,0.0,-999.0,51,-99.99,,,-99.99,,2013-07-03 04:33:00,
2013-07-02 23:43:00,70.0,51.0,30.07,ENE,62,0.0,-999.0,51,-99.99,,,-99.99,,2013-07-03 04:43:00,
2013-07-02 23:52:00,70.0,52.0,30.07,ENE,62,0.0,-999.0,53,-99.99,,,-99.99,,2013-07-03 04:52:00,